sensor_id;sensor_type;location;lat;lon;timestamp;pressure;altitude;pressure_sealevel;temperature;humidity
75418;BME280;63997;52.112;5.420;2023-12-04T00:01:44;101425.72;;;0.17;100.00
75418;BME280;63997;52.112;5.420;2023-12-04T00:04:12;101422.59;;;0.20;100.00
75418;BME280;63997;52.112;5.420;2023-12-04T00:06:38;101421.81;;;0.20;100.00
75418;BME280;63997;52.112;5.420;2023-12-04T00:09:05;101422.34;;;0.22;100.00
75418;BME280;63997;52.112;5.420;2023-12-04T00:11:31;101419.75;;;0.22;100.00
75418;BME280;63997;52.112;5.420;2023-12-04T00:13:59;101422.34;;;0.22;100.00
75418;BME280;63997;52.112;5.420;2023-12-04T00:16:26;101416.34;;;0.21;100.00
75418;BME280;63997;52.112;5.420;2023-12-04T00:18:53;101410.06;;;0.22;100.00
75418;BME280;63997;52.112;5.420;2023-12-04T00:21:19;101398.03;;;0.21;100.00
75418;BME280;63997;52.112;5.420;2023-12-04T00:23:46;101405.09;;;0.21;100.00
75418;BME280;63997;52.112;5.420;2023-12-04T00:26:12;101408.50;;;0.21;100.00
75418;BME280;63997;52.112;5.420;2023-12-04T00:28:39;101404.06;;;0.22;100.00
75418;BME280;63997;52.112;5.420;2023-12-04T00:31:06;101404.84;;;0.22;100.00
75418;BME280;63997;52.112;5.420;2023-12-04T00:33:32;101396.00;;;0.23;100.00
75418;BME280;63997;52.112;5.420;2023-12-04T00:35:59;101385.53;;;0.23;100.00
75418;BME280;63997;52.112;5.420;2023-12-04T00:38:26;101392.59;;;0.23;100.00
75418;BME280;63997;52.112;5.420;2023-12-04T00:40:52;101375.06;;;0.23;100.00
75418;BME280;63997;52.112;5.420;2023-12-04T00:43:19;101378.22;;;0.25;100.00
75418;BME280;63997;52.112;5.420;2023-12-04T00:45:46;101373.25;;;0.24;100.00
75418;BME280;63997;52.112;5.420;2023-12-04T00:48:12;101375.84;;;0.24;100.00
75418;BME280;63997;52.112;5.420;2023-12-04T00:50:39;101376.66;;;0.24;100.00
75418;BME280;63997;52.112;5.420;2023-12-04T00:53:06;101366.97;;;0.25;100.00
75418;BME280;63997;52.112;5.420;2023-12-04T00:55:32;101353.34;;;0.23;100.00
75418;BME280;63997;52.112;5.420;2023-12-04T00:57:58;101370.84;;;0.22;100.00
75418;BME280;63997;52.112;5.420;2023-12-04T01:00:25;101364.81;;;0.22;100.00
75418;BME280;63997;52.112;5.420;2023-12-04T01:02:52;101362.22;;;0.22;100.00
75418;BME280;63997;52.112;5.420;2023-12-04T01:05:18;101354.59;;;0.20;100.00
75418;BME280;63997;52.112;5.420;2023-12-04T01:07:45;101358.81;;;0.21;100.00
75418;BME280;63997;52.112;5.420;2023-12-04T01:10:12;101358.00;;;0.21;100.00
75418;BME280;63997;52.112;5.420;2023-12-04T01:12:38;101350.16;;;0.21;100.00
75418;BME280;63997;52.112;5.420;2023-12-04T01:15:05;101353.56;;;0.21;100.00
75418;BME280;63997;52.112;5.420;2023-12-04T01:17:32;101359.59;;;0.22;100.00
75418;BME280;63997;52.112;5.420;2023-12-04T01:19:58;101351.75;;;0.22;100.00
75418;BME280;63997;52.112;5.420;2023-12-04T01:22:25;101347.31;;;0.22;100.00
75418;BME280;63997;52.112;5.420;2023-12-04T01:24:51;101347.31;;;0.22;100.00
75418;BME280;63997;52.112;5.420;2023-12-04T01:27:18;101345.50;;;0.23;100.00
75418;BME280;63997;52.112;5.420;2023-12-04T01:29:44;101337.66;;;0.23;100.00
75418;BME280;63997;52.112;5.420;2023-12-04T01:32:10;101332.44;;;0.23;100.00
75418;BME280;63997;52.112;5.420;2023-12-04T01:34:37;101334.81;;;0.24;100.00
75418;BME280;63997;52.112;5.420;2023-12-04T01:37:04;101333.22;;;0.23;100.00
75418;BME280;63997;52.112;5.420;2023-12-04T01:39:30;101327.19;;;0.23;100.00
75418;BME280;63997;52.112;5.420;2023-12-04T01:41:57;101327.19;;;0.23;100.00
75418;BME280;63997;52.112;5.420;2023-12-04T01:44:24;101314.34;;;0.21;100.00
75418;BME280;63997;52.112;5.420;2023-12-04T01:46:50;101319.56;;;0.21;100.00
75418;BME280;63997;52.112;5.420;2023-12-04T01:49:17;101322.19;;;0.21;100.00
75418;BME280;63997;52.112;5.420;2023-12-04T01:51:45;101330.03;;;0.21;100.00
75418;BME280;63997;52.112;5.420;2023-12-04T01:54:12;101319.56;;;0.21;100.00
75418;BME280;63997;52.112;5.420;2023-12-04T01:56:40;101314.34;;;0.21;100.00
75418;BME280;63997;52.112;5.420;2023-12-04T01:59:06;101315.91;;;0.22;100.00
75418;BME280;63997;52.112;5.420;2023-12-04T02:01:33;101306.50;;;0.21;100.00
75418;BME280;63997;52.112;5.420;2023-12-04T02:04:01;101297.06;;;0.20;100.00
75418;BME280;63997;52.112;5.420;2023-12-04T02:06:28;101303.09;;;0.21;100.00
75418;BME280;63997;52.112;5.420;2023-12-04T02:08:56;101299.44;;;0.22;100.00
75418;BME280;63997;52.112;5.420;2023-12-04T02:11:23;101297.84;;;0.21;100.00
75418;BME280;63997;52.112;5.420;2023-12-04T02:13:49;101291.84;;;0.20;100.00
75418;BME280;63997;52.112;5.420;2023-12-04T02:16:16;101288.44;;;0.20;100.00
75418;BME280;63997;52.112;5.420;2023-12-04T02:18:45;101281.38;;;0.20;100.00
75418;BME280;63997;52.112;5.420;2023-12-04T02:21:12;101276.94;;;0.21;100.00
75418;BME280;63997;52.112;5.420;2023-12-04T02:23:39;101272.50;;;0.21;100.00
75418;BME280;63997;52.112;5.420;2023-12-04T02:26:10;101280.13;;;0.23;100.00
75418;BME280;63997;52.112;5.420;2023-12-04T02:28:38;101281.91;;;0.22;100.00
75418;BME280;63997;52.112;5.420;2023-12-04T02:31:06;101283.53;;;0.23;100.00
75418;BME280;63997;52.112;5.420;2023-12-04T02:33:35;101279.88;;;0.24;100.00
75418;BME280;63997;52.112;5.420;2023-12-04T02:36:04;101271.78;;;0.26;100.00
75418;BME280;63997;52.112;5.420;2023-12-04T02:38:31;101264.72;;;0.26;100.00
75418;BME280;63997;52.112;5.420;2023-12-04T02:40:58;101267.09;;;0.28;100.00
75418;BME280;63997;52.112;5.420;2023-12-04T02:43:25;101261.66;;;0.30;100.00
75418;BME280;63997;52.112;5.420;2023-12-04T02:45:51;101251.19;;;0.30;100.00
75418;BME280;63997;52.112;5.420;2023-12-04T02:48:18;101247.78;;;0.29;100.00
75418;BME280;63997;52.112;5.420;2023-12-04T02:50:45;101248.56;;;0.30;100.00
75418;BME280;63997;52.112;5.420;2023-12-04T02:53:11;101240.94;;;0.28;100.00
75418;BME280;63997;52.112;5.420;2023-12-04T02:55:38;101246.75;;;0.30;100.00
75418;BME280;63997;52.112;5.420;2023-12-04T02:58:05;101240.94;;;0.28;100.00
75418;BME280;63997;52.112;5.420;2023-12-04T03:00:31;101232.31;;;0.28;100.00
75418;BME280;63997;52.112;5.420;2023-12-04T03:02:58;101220.84;;;0.29;100.00
75418;BME280;63997;52.112;5.420;2023-12-04T03:05:24;101225.50;;;0.26;100.00
75418;BME280;63997;52.112;5.420;2023-12-04T03:07:51;101225.25;;;0.28;100.00
75418;BME280;63997;52.112;5.420;2023-12-04T03:10:18;101217.41;;;0.28;100.00
75418;BME280;63997;52.112;5.420;2023-12-04T03:12:44;101222.63;;;0.28;100.00
75418;BME280;63997;52.112;5.420;2023-12-04T03:15:11;101215.59;;;0.29;100.00
75418;BME280;63997;52.112;5.420;2023-12-04T03:17:39;101214.56;;;0.30;100.00
75418;BME280;63997;52.112;5.420;2023-12-04T03:20:06;101207.50;;;0.30;100.00
75418;BME280;63997;52.112;5.420;2023-12-04T03:22:37;101205.69;;;0.31;100.00
75418;BME280;63997;52.112;5.420;2023-12-04T03:25:05;101203.84;;;0.31;100.00
75418;BME280;63997;52.112;5.420;2023-12-04T03:27:31;101187.38;;;0.31;100.00
75418;BME280;63997;52.112;5.420;2023-12-04T03:29:58;101195.22;;;0.31;100.00
75418;BME280;63997;52.112;5.420;2023-12-04T03:32:25;101191.56;;;0.32;100.00
75418;BME280;63997;52.112;5.420;2023-12-04T03:34:51;101183.97;;;0.30;100.00
75418;BME280;63997;52.112;5.420;2023-12-04T03:37:18;101186.59;;;0.30;100.00
75418;BME280;63997;52.112;5.420;2023-12-04T03:39:44;101176.91;;;0.31;100.00
75418;BME280;63997;52.112;5.420;2023-12-04T03:42:11;101172.72;;;0.30;100.00
75418;BME280;63997;52.112;5.420;2023-12-04T03:44:37;101172.72;;;0.30;100.00
75418;BME280;63997;52.112;5.420;2023-12-04T03:47:04;101168.53;;;0.29;100.00
75418;BME280;63997;52.112;5.420;2023-12-04T03:49:30;101167.69;;;0.28;100.00
75418;BME280;63997;52.112;5.420;2023-12-04T03:51:57;101161.69;;;0.28;100.00
75418;BME280;63997;52.112;5.420;2023-12-04T03:54:23;101164.28;;;0.28;100.00
75418;BME280;63997;52.112;5.420;2023-12-04T03:56:50;101157.50;;;0.26;100.00
75418;BME280;63997;52.112;5.420;2023-12-04T03:59:17;101157.50;;;0.26;100.00
75418;BME280;63997;52.112;5.420;2023-12-04T04:01:43;101147.03;;;0.26;100.00
75418;BME280;63997;52.112;5.420;2023-12-04T04:04:10;101140.22;;;0.25;100.00
75418;BME280;63997;52.112;5.420;2023-12-04T04:06:36;101145.44;;;0.25;100.00
75418;BME280;63997;52.112;5.420;2023-12-04T04:09:05;101135.25;;;0.24;100.00
75418;BME280;63997;52.112;5.420;2023-12-04T04:11:32;101134.44;;;0.23;100.00
75418;BME280;63997;52.112;5.420;2023-12-04T04:13:58;101139.69;;;0.23;100.00
75418;BME280;63997;52.112;5.420;2023-12-04T04:16:24;101134.44;;;0.23;100.00
75418;BME280;63997;52.112;5.420;2023-12-04T04:18:51;101130.81;;;0.24;100.00
75418;BME280;63997;52.112;5.420;2023-12-04T04:21:18;101123.75;;;0.25;100.00
75418;BME280;63997;52.112;5.420;2023-12-04T04:23:44;101115.66;;;0.26;100.00
75418;BME280;63997;52.112;5.420;2023-12-04T04:26:11;101118.25;;;0.26;100.00
75418;BME280;63997;52.112;5.420;2023-12-04T04:28:37;101119.03;;;0.27;100.00
75418;BME280;63997;52.112;5.420;2023-12-04T04:31:04;101111.44;;;0.25;100.00
75418;BME280;63997;52.112;5.420;2023-12-04T04:33:30;101111.19;;;0.27;100.00
75418;BME280;63997;52.112;5.420;2023-12-04T04:35:57;101114.59;;;0.28;100.00
75418;BME280;63997;52.112;5.420;2023-12-04T04:38:23;101109.38;;;0.28;100.00
75418;BME280;63997;52.112;5.420;2023-12-04T04:40:50;101102.09;;;0.30;100.00
75418;BME280;63997;52.112;5.420;2023-12-04T04:43:19;101108.91;;;0.31;100.00
75418;BME280;63997;52.112;5.420;2023-12-04T04:45:46;101103.66;;;0.31;100.00
75418;BME280;63997;52.112;5.420;2023-12-04T04:48:12;101103.66;;;0.31;100.00
75418;BME280;63997;52.112;5.420;2023-12-04T04:50:39;101104.47;;;0.31;100.00
75418;BME280;63997;52.112;5.420;2023-12-04T04:53:06;101107.88;;;0.32;100.00
75418;BME280;63997;52.112;5.420;2023-12-04T04:55:32;101101.84;;;0.31;100.00
75418;BME280;63997;52.112;5.420;2023-12-04T04:58:14;101103.41;;;0.32;100.00
75418;BME280;63997;52.112;5.420;2023-12-04T05:00:41;101100.00;;;0.32;100.00
75418;BME280;63997;52.112;5.420;2023-12-04T05:03:07;101092.97;;;0.32;100.00
75418;BME280;63997;52.112;5.420;2023-12-04T05:05:34;101094.78;;;0.32;100.00
75418;BME280;63997;52.112;5.420;2023-12-04T05:08:00;101089.56;;;0.32;100.00
75418;BME280;63997;52.112;5.420;2023-12-04T05:10:27;101090.59;;;0.31;100.00
75418;BME280;63997;52.112;5.420;2023-12-04T05:12:53;101096.34;;;0.33;100.00
75418;BME280;63997;52.112;5.420;2023-12-04T05:15:20;101091.13;;;0.33;100.00
75418;BME280;63997;52.112;5.420;2023-12-04T05:17:46;101088.50;;;0.33;100.00
75418;BME280;63997;52.112;5.420;2023-12-04T05:20:13;101076.47;;;0.32;99.84
75418;BME280;63997;52.112;5.420;2023-12-04T05:22:40;101085.09;;;0.32;99.73
75418;BME280;63997;52.112;5.420;2023-12-04T05:25:07;101075.44;;;0.33;99.78
75418;BME280;63997;52.112;5.420;2023-12-04T05:27:34;101077.25;;;0.32;99.77
75418;BME280;63997;52.112;5.420;2023-12-04T05:30:00;101073.84;;;0.32;99.70
75418;BME280;63997;52.112;5.420;2023-12-04T05:32:27;101074.66;;;0.32;99.75
75418;BME280;63997;52.112;5.420;2023-12-04T05:34:54;101065.22;;;0.31;99.65
75418;BME280;63997;52.112;5.420;2023-12-04T05:37:20;101059.19;;;0.31;99.62
75418;BME280;63997;52.112;5.420;2023-12-04T05:39:47;101062.88;;;0.30;99.76
75418;BME280;63997;52.112;5.420;2023-12-04T05:42:13;101047.69;;;0.32;99.74
75418;BME280;63997;52.112;5.420;2023-12-04T05:44:40;101044.31;;;0.31;99.54
75418;BME280;63997;52.112;5.420;2023-12-04T05:47:06;101046.13;;;0.31;99.70
75418;BME280;63997;52.112;5.420;2023-12-04T05:49:35;101037.50;;;0.30;99.56
75418;BME280;63997;52.112;5.420;2023-12-04T05:52:02;101030.44;;;0.31;99.35
75418;BME280;63997;52.112;5.420;2023-12-04T05:54:28;101043.25;;;0.32;99.24
75418;BME280;63997;52.112;5.420;2023-12-04T05:56:54;101033.59;;;0.33;99.21
75418;BME280;63997;52.112;5.420;2023-12-04T05:59:21;101037.25;;;0.32;99.02
75418;BME280;63997;52.112;5.420;2023-12-04T06:01:47;101038.81;;;0.33;99.04
75418;BME280;63997;52.112;5.420;2023-12-04T06:04:14;101031.75;;;0.33;99.04
75418;BME280;63997;52.112;5.420;2023-12-04T06:06:41;101036.75;;;0.35;98.68
75418;BME280;63997;52.112;5.420;2023-12-04T06:09:07;101026.31;;;0.35;98.78
75418;BME280;63997;52.112;5.420;2023-12-04T06:11:34;101032.31;;;0.35;98.50
75418;BME280;63997;52.112;5.420;2023-12-04T06:14:00;101023.44;;;0.36;98.53
75418;BME280;63997;52.112;5.420;2023-12-04T06:16:27;101031.53;;;0.35;98.49
75418;BME280;63997;52.112;5.420;2023-12-04T06:18:53;101025.25;;;0.36;98.29
75418;BME280;63997;52.112;5.420;2023-12-04T06:21:20;101027.88;;;0.36;98.26
75418;BME280;63997;52.112;5.420;2023-12-04T06:23:47;101032.31;;;0.35;97.93
75418;BME280;63997;52.112;5.420;2023-12-04T06:26:13;101031.28;;;0.36;98.03
75418;BME280;63997;52.112;5.420;2023-12-04T06:28:40;101025.25;;;0.36;98.02
75418;BME280;63997;52.112;5.420;2023-12-04T06:31:07;101015.84;;;0.35;97.86
75418;BME280;63997;52.112;5.420;2023-12-04T06:33:34;101017.41;;;0.36;97.83
75418;BME280;63997;52.112;5.420;2023-12-04T06:36:02;101006.94;;;0.36;97.42
75418;BME280;63997;52.112;5.420;2023-12-04T06:38:31;101012.97;;;0.36;97.51
75418;BME280;63997;52.112;5.420;2023-12-04T06:40:59;101006.94;;;0.36;97.27
75418;BME280;63997;52.112;5.420;2023-12-04T06:43:25;101001.72;;;0.36;97.42
75418;BME280;63997;52.112;5.420;2023-12-04T06:45:52;100989.69;;;0.35;97.34
75418;BME280;63997;52.112;5.420;2023-12-04T06:48:19;101003.28;;;0.37;97.31
75418;BME280;63997;52.112;5.420;2023-12-04T06:50:45;100987.59;;;0.37;97.47
75418;BME280;63997;52.112;5.420;2023-12-04T06:53:12;100989.44;;;0.36;97.19
75418;BME280;63997;52.112;5.420;2023-12-04T06:55:39;100984.44;;;0.35;96.89
75418;BME280;63997;52.112;5.420;2023-12-04T06:58:05;100976.34;;;0.36;96.74
75418;BME280;63997;52.112;5.420;2023-12-04T07:00:32;100976.34;;;0.36;96.42
75418;BME280;63997;52.112;5.420;2023-12-04T07:02:58;100968.50;;;0.36;96.47
75418;BME280;63997;52.112;5.420;2023-12-04T07:05:25;100974.53;;;0.37;96.43
75418;BME280;63997;52.112;5.420;2023-12-04T07:07:52;100970.31;;;0.36;96.49
75418;BME280;63997;52.112;5.420;2023-12-04T07:10:19;100974.78;;;0.35;96.33
75418;BME280;63997;52.112;5.420;2023-12-04T07:12:45;100971.13;;;0.36;96.20
75418;BME280;63997;52.112;5.420;2023-12-04T07:15:12;100959.59;;;0.37;95.97
75418;BME280;63997;52.112;5.420;2023-12-04T07:17:39;100961.44;;;0.37;96.27
75418;BME280;63997;52.112;5.420;2023-12-04T07:20:06;100946.53;;;0.37;96.29
75418;BME280;63997;52.112;5.420;2023-12-04T07:22:33;100946.53;;;0.37;96.21
75418;BME280;63997;52.112;5.420;2023-12-04T07:25:05;100948.09;;;0.38;96.16
75418;BME280;63997;52.112;5.420;2023-12-04T07:27:33;100946.28;;;0.39;96.13
75418;BME280;63997;52.112;5.420;2023-12-04T07:30:01;100950.50;;;0.40;96.03
75418;BME280;63997;52.112;5.420;2023-12-04T07:32:28;100945.25;;;0.40;95.71
75418;BME280;63997;52.112;5.420;2023-12-04T07:34:55;100952.06;;;0.41;95.59
75418;BME280;63997;52.112;5.420;2023-12-04T07:37:21;100950.25;;;0.41;95.52
75418;BME280;63997;52.112;5.420;2023-12-04T07:39:48;100948.41;;;0.42;95.26
75418;BME280;63997;52.112;5.420;2023-12-04T07:42:15;100956.78;;;0.44;94.85
75418;BME280;63997;52.112;5.420;2023-12-04T07:44:41;100952.34;;;0.44;94.48
75418;BME280;63997;52.112;5.420;2023-12-04T07:47:08;100950.78;;;0.43;94.65
75418;BME280;63997;52.112;5.420;2023-12-04T07:49:34;100948.72;;;0.45;94.56
75418;BME280;63997;52.112;5.420;2023-12-04T07:52:01;100944.25;;;0.46;94.14
75418;BME280;63997;52.112;5.420;2023-12-04T07:54:28;100944.25;;;0.46;94.28
75418;BME280;63997;52.112;5.420;2023-12-04T07:56:55;100940.59;;;0.47;94.21
75418;BME280;63997;52.112;5.420;2023-12-04T07:59:22;100938.00;;;0.47;94.30
75418;BME280;63997;52.112;5.420;2023-12-04T08:01:48;100944.78;;;0.48;94.04
75418;BME280;63997;52.112;5.420;2023-12-04T08:04:15;100945.31;;;0.50;94.00
75418;BME280;63997;52.112;5.420;2023-12-04T08:06:43;100948.50;;;0.52;94.02
75418;BME280;63997;52.112;5.420;2023-12-04T08:09:10;100938.03;;;0.52;93.70
75418;BME280;63997;52.112;5.420;2023-12-04T08:11:37;100942.47;;;0.51;93.27
75418;BME280;63997;52.112;5.420;2023-12-04T08:14:04;100938.56;;;0.54;93.21
75418;BME280;63997;52.112;5.420;2023-12-04T08:16:30;100939.91;;;0.57;93.06
75418;BME280;63997;52.112;5.420;2023-12-04T08:18:57;100951.16;;;0.57;92.82
75418;BME280;63997;52.112;5.420;2023-12-04T08:21:25;100953.78;;;0.57;92.66
75418;BME280;63997;52.112;5.420;2023-12-04T08:23:52;100951.94;;;0.58;92.54
75418;BME280;63997;52.112;5.420;2023-12-04T08:26:23;100941.47;;;0.58;92.68
75418;BME280;63997;52.112;5.420;2023-12-04T08:28:53;100950.13;;;0.58;92.45
75418;BME280;63997;52.112;5.420;2023-12-04T08:31:20;100950.66;;;0.60;92.20
75418;BME280;63997;52.112;5.420;2023-12-04T08:33:48;100940.75;;;0.62;92.13
75418;BME280;63997;52.112;5.420;2023-12-04T08:36:16;100940.75;;;0.62;91.69
75418;BME280;63997;52.112;5.420;2023-12-04T08:38:44;100934.47;;;0.63;91.80
75418;BME280;63997;52.112;5.420;2023-12-04T08:41:10;100929.75;;;0.65;91.63
75418;BME280;63997;52.112;5.420;2023-12-04T08:43:37;100925.06;;;0.67;91.32
75418;BME280;63997;52.112;5.420;2023-12-04T08:46:04;100919.59;;;0.69;91.22
75418;BME280;63997;52.112;5.420;2023-12-04T08:48:32;100914.63;;;0.72;90.93
75418;BME280;63997;52.112;5.420;2023-12-04T08:50:59;100914.41;;;0.74;91.10
75418;BME280;63997;52.112;5.420;2023-12-04T08:53:26;100907.31;;;0.74;90.69
75418;BME280;63997;52.112;5.420;2023-12-04T08:55:52;100907.59;;;0.78;90.43
75418;BME280;63997;52.112;5.420;2023-12-04T08:58:19;100903.69;;;0.81;90.37
75418;BME280;63997;52.112;5.420;2023-12-04T09:00:46;100900.81;;;0.82;90.68
75418;BME280;63997;52.112;5.420;2023-12-04T09:03:12;100902.69;;;0.87;90.16
75418;BME280;63997;52.112;5.420;2023-12-04T09:05:51;100891.69;;;0.90;90.28
75418;BME280;63997;52.112;5.420;2023-12-04T09:08:19;100894.88;;;0.92;89.71
75418;BME280;63997;52.112;5.420;2023-12-04T09:10:48;100893.56;;;0.94;89.27
75418;BME280;63997;52.112;5.420;2023-12-04T09:13:35;100897.25;;;0.98;89.10
75418;BME280;63997;52.112;5.420;2023-12-04T09:16:02;100892.53;;;1.00;89.06
75418;BME280;63997;52.112;5.420;2023-12-04T09:18:30;100891.28;;;1.03;88.81
75418;BME280;63997;52.112;5.420;2023-12-04T09:20:57;100896.53;;;1.08;88.45
75418;BME280;63997;52.112;5.420;2023-12-04T09:23:23;100885.78;;;1.10;88.48
75418;BME280;63997;52.112;5.420;2023-12-04T09:25:51;100886.63;;;1.15;88.10
75418;BME280;63997;52.112;5.420;2023-12-04T09:28:18;100880.63;;;1.20;86.88
75418;BME280;63997;52.112;5.420;2023-12-04T09:30:44;100880.88;;;1.23;86.90
75418;BME280;63997;52.112;5.420;2023-12-04T09:33:11;100885.34;;;1.28;86.76
75418;BME280;63997;52.112;5.420;2023-12-04T09:35:38;100885.63;;;1.31;85.78
75418;BME280;63997;52.112;5.420;2023-12-04T09:38:04;100887.72;;;1.35;86.00
75418;BME280;63997;52.112;5.420;2023-12-04T09:40:32;100881.72;;;1.34;86.02
75418;BME280;63997;52.112;5.420;2023-12-04T09:42:58;100882.50;;;1.35;86.14
75418;BME280;63997;52.112;5.420;2023-12-04T09:45:25;100875.44;;;1.35;85.74
75418;BME280;63997;52.112;5.420;2023-12-04T09:47:54;100883.03;;;1.37;86.02
75418;BME280;63997;52.112;5.420;2023-12-04T09:50:21;100876.75;;;1.38;85.60
75418;BME280;63997;52.112;5.420;2023-12-04T09:52:50;100870.47;;;1.39;85.34
75418;BME280;63997;52.112;5.420;2023-12-04T09:55:17;100867.34;;;1.42;85.13
75418;BME280;63997;52.112;5.420;2023-12-04T09:57:44;100863.69;;;1.43;84.96
75418;BME280;63997;52.112;5.420;2023-12-04T10:00:16;100870.22;;;1.45;84.60
75418;BME280;63997;52.112;5.420;2023-12-04T10:02:44;100874.19;;;1.48;84.55
75418;BME280;63997;52.112;5.420;2023-12-04T10:05:11;100865.00;;;1.50;84.33
75418;BME280;63997;52.112;5.420;2023-12-04T10:07:38;100859.53;;;1.52;84.11
75418;BME280;63997;52.112;5.420;2023-12-04T10:10:08;100859.78;;;1.55;83.55
75418;BME280;63997;52.112;5.420;2023-12-04T10:12:35;100853.25;;;1.58;83.73
75418;BME280;63997;52.112;5.420;2023-12-04T10:15:04;100851.94;;;1.61;83.04
75418;BME280;63997;52.112;5.420;2023-12-04T10:17:41;100845.91;;;1.65;82.98
75418;BME280;63997;52.112;5.420;2023-12-04T10:20:12;100838.56;;;1.67;82.71
75418;BME280;63997;52.112;5.420;2023-12-04T10:22:40;100833.88;;;1.69;82.63
75418;BME280;63997;52.112;5.420;2023-12-04T10:25:17;100833.88;;;1.74;82.98
75418;BME280;63997;52.112;5.420;2023-12-04T10:27:45;100827.59;;;1.80;82.30
75418;BME280;63997;52.112;5.420;2023-12-04T10:30:26;100826.00;;;1.84;82.47
75418;BME280;63997;52.112;5.420;2023-12-04T10:33:04;100826.56;;;1.92;82.06
75418;BME280;63997;52.112;5.420;2023-12-04T10:35:32;100812.41;;;1.93;82.46
75418;BME280;63997;52.112;5.420;2023-12-04T10:38:00;100811.63;;;1.92;81.88
75418;BME280;63997;52.112;5.420;2023-12-04T10:40:28;100813.47;;;1.97;81.51
75418;BME280;63997;52.112;5.420;2023-12-04T10:45:40;100801.38;;;2.01;81.57
75418;BME280;63997;52.112;5.420;2023-12-04T10:48:11;100804.00;;;2.01;81.48
75418;BME280;63997;52.112;5.420;2023-12-04T10:50:40;100788.81;;;1.98;81.44
75418;BME280;63997;52.112;5.420;2023-12-04T10:53:08;100791.44;;;1.98;81.14
75418;BME280;63997;52.112;5.420;2023-12-04T10:55:36;100782.50;;;1.99;80.93
75418;BME280;63997;52.112;5.420;2023-12-04T10:58:11;100779.09;;;1.98;81.19
75418;BME280;63997;52.112;5.420;2023-12-04T11:00:46;100782.22;;;2.00;81.41
75418;BME280;63997;52.112;5.420;2023-12-04T11:03:21;100776.47;;;2.03;81.44
75418;BME280;63997;52.112;5.420;2023-12-04T11:05:56;100765.19;;;2.03;81.02
75418;BME280;63997;52.112;5.420;2023-12-04T11:08:28;100764.38;;;2.07;81.47
75418;BME280;63997;52.112;5.420;2023-12-04T11:10:59;100758.63;;;2.10;81.26
75418;BME280;63997;52.112;5.420;2023-12-04T11:13:30;100751.03;;;2.09;81.42
75418;BME280;63997;52.112;5.420;2023-12-04T11:19:02;100742.88;;;2.16;81.37
75418;BME280;63997;52.112;5.420;2023-12-04T11:21:33;100732.41;;;2.16;81.67
75418;BME280;63997;52.112;5.420;2023-12-04T11:24:01;100729.00;;;2.15;81.43
75418;BME280;63997;52.112;5.420;2023-12-04T11:26:29;100731.06;;;2.18;81.52
75418;BME280;63997;52.112;5.420;2023-12-04T11:28:56;100716.91;;;2.19;81.62
75418;BME280;63997;52.112;5.420;2023-12-04T11:31:23;100715.88;;;2.20;81.47
75418;BME280;63997;52.112;5.420;2023-12-04T11:33:51;100721.34;;;2.19;81.51
75418;BME280;63997;52.112;5.420;2023-12-04T11:36:18;100714.03;;;2.16;81.26
75418;BME280;63997;52.112;5.420;2023-12-04T11:38:46;100706.44;;;2.14;81.24
75418;BME280;63997;52.112;5.420;2023-12-04T11:41:18;100704.31;;;2.16;81.42
75418;BME280;63997;52.112;5.420;2023-12-04T11:43:52;100704.59;;;2.20;81.40
75418;BME280;63997;52.112;5.420;2023-12-04T11:46:26;100704.81;;;2.18;81.58
75418;BME280;63997;52.112;5.420;2023-12-04T11:54:15;100701.72;;;2.11;81.26
75418;BME280;63997;52.112;5.420;2023-12-04T11:57:00;100702.75;;;2.10;81.51
75418;BME280;63997;52.112;5.420;2023-12-04T11:59:27;100691.75;;;2.08;81.51
75418;BME280;63997;52.112;5.420;2023-12-04T12:01:55;100695.69;;;2.05;81.49
75418;BME280;63997;52.112;5.420;2023-12-04T12:04:23;100700.41;;;2.03;81.74
75418;BME280;63997;52.112;5.420;2023-12-04T12:06:54;100688.34;;;2.02;81.85
75418;BME280;63997;52.112;5.420;2023-12-04T12:09:22;100684.94;;;2.02;81.83
75418;BME280;63997;52.112;5.420;2023-12-04T12:11:49;100689.16;;;2.03;82.24
75418;BME280;63997;52.112;5.420;2023-12-04T12:14:20;100676.28;;;2.01;81.79
75418;BME280;63997;52.112;5.420;2023-12-04T12:16:47;100676.28;;;2.01;82.11
75418;BME280;63997;52.112;5.420;2023-12-04T12:19:14;100675.50;;;2.01;82.20
75418;BME280;63997;52.112;5.420;2023-12-04T12:21:40;100672.34;;;2.04;82.25
75418;BME280;63997;52.112;5.420;2023-12-04T12:24:07;100671.56;;;2.08;82.61
75418;BME280;63997;52.112;5.420;2023-12-04T12:26:34;100665.50;;;2.13;82.56
75418;BME280;63997;52.112;5.420;2023-12-04T12:29:01;100661.28;;;2.17;82.48
75418;BME280;63997;52.112;5.420;2023-12-04T12:31:28;100669.16;;;2.17;82.56
75418;BME280;63997;52.112;5.420;2023-12-04T12:33:56;100666.81;;;2.16;82.10
75418;BME280;63997;52.112;5.420;2023-12-04T12:36:24;100654.47;;;2.16;82.36
75418;BME280;63997;52.112;5.420;2023-12-04T12:38:51;100660.22;;;2.18;82.42
75418;BME280;63997;52.112;5.420;2023-12-04T12:41:17;100653.97;;;2.14;82.32
75418;BME280;63997;52.112;5.420;2023-12-04T12:43:44;100642.41;;;2.15;82.28
75418;BME280;63997;52.112;5.420;2023-12-04T12:46:11;100636.13;;;2.16;82.66
75418;BME280;63997;52.112;5.420;2023-12-04T12:48:37;100637.16;;;2.20;82.43
75418;BME280;63997;52.112;5.420;2023-12-04T12:51:04;100634.78;;;2.19;82.85
75418;BME280;63997;52.112;5.420;2023-12-04T12:53:32;100622.72;;;2.23;83.08
75418;BME280;63997;52.112;5.420;2023-12-04T12:56:00;100620.88;;;2.23;82.76
75418;BME280;63997;52.112;5.420;2023-12-04T12:58:27;100605.69;;;2.20;82.67
75418;BME280;63997;52.112;5.420;2023-12-04T13:00:55;100606.19;;;2.22;82.15
75418;BME280;63997;52.112;5.420;2023-12-04T13:03:22;100600.16;;;2.22;82.51
75418;BME280;63997;52.112;5.420;2023-12-04T13:05:49;100591.22;;;2.23;82.34
75418;BME280;63997;52.112;5.420;2023-12-04T13:08:16;100603.56;;;2.22;82.34